Time;durP1;ratioP1;P1;durP2;ratioP2;P2;SDS_P1;SDS_P2;PMS_P1;PMS_P2;Temp;Humidity;BMP_temperature;BMP_pressure;BME280_temperature;BME280_humidity;BME280_pressure;Samples;Min_cycle;Max_cycle;Signal;HPM_P1;HPM_P2
2021/04/03 00:00:56;;;;;;;6.07;4.45;;;3.10;92.50;;;;;;4769401;29;20047;-79
2021/04/03 00:03:25;;;;;;;6.78;4.72;;;3.10;92.40;;;;;;4762214;30;20514;-79
2021/04/03 00:05:54;;;;;;;7.57;4.68;;;3.20;92.40;;;;;;4758856;30;20055;-79
2021/04/03 00:08:24;;;;;;;6.78;5.68;;;3.20;92.60;;;;;;4761446;30;20110;-79
2021/04/03 00:11:00;;;;;;;5.97;4.97;;;3.20;92.70;;;;;;4761798;30;20060;-79
2021/04/03 00:13:40;;;;;;;5.43;5.03;;;3.30;92.30;;;;;;4772494;30;20102;-80
2021/04/03 00:16:09;;;;;;;5.25;4.10;;;3.40;92.40;;;;;;4768901;29;20064;-80
2021/04/03 00:18:37;;;;;;;9.85;4.82;;;3.40;92.50;;;;;;4770044;30;20483;-80
2021/04/03 00:21:05;;;;;;;8.85;5.32;;;3.40;92.50;;;;;;4768881;30;20048;-80
2021/04/03 00:23:33;;;;;;;6.07;4.57;;;3.40;92.40;;;;;;4757544;30;20060;-80
2021/04/03 00:26:02;;;;;;;4.95;4.45;;;3.40;92.40;;;;;;4761459;30;20052;-80
2021/04/03 00:28:30;;;;;;;8.43;5.13;;;3.40;92.30;;;;;;4764427;30;20044;-80
2021/04/03 00:30:57;;;;;;;7.68;5.88;;;3.40;92.40;;;;;;4770262;30;20533;-80
2021/04/03 00:33:25;;;;;;;11.43;6.60;;;3.40;92.20;;;;;;4768339;30;20059;-80
2021/04/03 00:36:02;;;;;;;7.78;5.95;;;3.40;92.10;;;;;;4769443;30;20067;-80
2021/04/03 00:38:30;;;;;;;8.35;6.68;;;3.40;92.20;;;;;;4770247;30;20059;-80
2021/04/03 00:40:57;;;;;;;7.30;5.38;;;3.40;92.30;;;;;;4769362;30;20134;-80
2021/04/03 00:43:24;;;;;;;5.93;4.35;;;3.40;92.40;;;;;;4765894;30;20633;-78
2021/04/03 00:45:52;;;;;;;6.13;5.03;;;3.40;92.40;;;;;;4752295;30;20052;-78
2021/04/03 00:48:20;;;;;;;8.27;4.88;;;3.40;92.40;;;;;;4751452;30;20067;-78
2021/04/03 00:50:52;;;;;;;6.78;5.10;;;3.40;92.30;;;;;;4753034;30;20072;-78
2021/04/03 00:53:25;;;;;;;6.38;5.78;;;3.40;92.50;;;;;;4768100;30;20434;-77
2021/04/03 00:56:01;;;;;;;7.70;5.60;;;3.40;92.50;;;;;;4767538;30;20052;-78
2021/04/03 00:58:30;;;;;;;6.88;6.07;;;3.40;92.50;;;;;;4766315;30;20055;-78
2021/04/03 01:00:59;;;;;;;8.18;5.10;;;3.30;92.50;;;;;;4768129;30;20055;-78
2021/04/03 01:03:31;;;;;;;7.53;5.50;;;3.30;92.50;;;;;;4769725;30;20063;-78
2021/04/03 01:06:01;;;;;;;5.57;4.80;;;3.40;92.60;;;;;;4767870;30;20062;-78
2021/04/03 01:08:32;;;;;;;7.03;6.18;;;3.40;92.70;;;;;;4754307;30;20043;-78
2021/04/03 01:11:02;;;;;;;6.68;5.72;;;3.40;92.80;;;;;;4768135;30;20076;-78
2021/04/03 01:14:11;;;;;;;7.68;5.70;;;3.40;92.50;;;;;;4767452;30;20052;-78
2021/04/03 01:16:54;;;;;;;6.57;5.25;;;3.50;92.50;;;;;;4685506;30;20045;-78
2021/04/03 01:19:50;;;;;;;5.00;4.50;;;3.50;92.50;;;;;;4714321;30;20068;-78
2021/04/03 01:22:53;;;;;;;6.75;5.72;;;3.50;92.50;;;;;;4765976;30;20067;-78
2021/04/03 01:25:55;;;;;;;8.32;5.32;;;3.50;92.70;;;;;;4749783;30;20427;-79
2021/04/03 01:29:04;;;;;;;8.05;6.18;;;3.50;92.80;;;;;;4751263;30;20052;-78
2021/04/03 01:31:33;;;;;;;7.50;6.75;;;3.50;92.90;;;;;;4763227;30;20052;-78
2021/04/03 01:34:02;;;;;;;7.43;5.82;;;3.50;93.00;;;;;;4768655;29;20060;-78
2021/04/03 01:36:35;;;;;;;7.38;6.10;;;3.50;93.00;;;;;;4767756;29;20709;-78
2021/04/03 01:39:07;;;;;;;7.30;5.55;;;3.40;93.40;;;;;;4768237;30;20063;-78
2021/04/03 01:41:37;;;;;;;7.40;6.07;;;3.50;93.20;;;;;;4768536;29;20047;-78
2021/04/03 01:44:08;;;;;;;8.50;5.50;;;3.40;93.30;;;;;;4767684;29;20068;-78
2021/04/03 01:46:42;;;;;;;7.00;5.65;;;3.40;93.60;;;;;;4769461;30;20044;-78
2021/04/03 01:49:15;;;;;;;5.45;4.93;;;3.50;93.50;;;;;;4767300;30;20048;-78
2021/04/03 01:51:49;;;;;;;7.15;5.97;;;3.50;93.10;;;;;;4769316;30;20056;-78
2021/04/03 01:54:23;;;;;;;9.57;6.35;;;3.50;93.20;;;;;;4767197;30;20063;-78
2021/04/03 01:56:58;;;;;;;7.13;5.28;;;3.60;93.00;;;;;;4768473;30;20048;-78
2021/04/03 01:59:38;;;;;;;6.68;5.95;;;3.60;92.80;;;;;;4767849;30;20510;-78
2021/04/03 02:02:10;;;;;;;8.43;5.55;;;3.60;92.70;;;;;;4766995;30;20067;-77
2021/04/03 02:04:41;;;;;;;7.72;6.63;;;3.70;92.80;;;;;;4766791;30;20055;-78
2021/04/03 02:07:23;;;;;;;6.60;5.18;;;3.70;92.70;;;;;;4768029;30;20051;-78
2021/04/03 02:10:00;;;;;;;7.65;6.00;;;3.60;92.70;;;;;;4768766;30;20062;-78
2021/04/03 02:12:53;;;;;;;10.18;7.05;;;3.60;92.90;;;;;;4768598;29;20040;-77
2021/04/03 02:15:28;;;;;;;7.57;6.30;;;3.50;93.00;;;;;;4756770;30;20048;-78
2021/04/03 02:18:00;;;;;;;8.10;6.10;;;3.50;93.10;;;;;;4771489;29;20438;-78
2021/04/03 02:20:41;;;;;;;6.45;5.10;;;3.50;93.40;;;;;;4770560;30;20293;-77
2021/04/03 02:23:08;;;;;;;6.60;6.00;;;3.50;93.40;;;;;;4771430;30;20081;-78
2021/04/03 02:25:38;;;;;;;7.85;6.43;;;3.50;93.40;;;;;;4771379;30;20052;-78
2021/04/03 02:28:07;;;;;;;6.78;4.47;;;3.40;93.60;;;;;;4770694;29;20055;-78
2021/04/03 02:30:45;;;;;;;12.35;7.47;;;3.40;93.50;;;;;;4771987;30;20051;-78
2021/04/03 02:33:14;;;;;;;6.68;5.78;;;3.40;93.60;;;;;;4770227;30;20058;-77
2021/04/03 02:35:42;;;;;;;8.07;6.00;;;3.40;93.70;;;;;;4770129;30;20066;-77
2021/04/03 02:38:13;;;;;;;9.32;7.55;;;3.40;93.80;;;;;;4771196;29;20048;-77
2021/04/03 02:40:51;;;;;;;8.63;7.32;;;3.40;93.90;;;;;;4769440;30;20491;-77
2021/04/03 02:43:55;;;;;;;7.88;6.22;;;3.30;93.70;;;;;;4761021;30;20060;-77
2021/04/03 02:46:39;;;;;;;11.48;7.95;;;3.30;93.30;;;;;;4753308;30;20068;-77
2021/04/03 02:49:15;;;;;;;7.47;6.50;;;3.30;93.30;;;;;;4752250;30;20056;-77
2021/04/03 02:51:47;;;;;;;16.33;8.18;;;3.30;92.90;;;;;;4761303;30;20442;-77
2021/04/03 02:54:20;;;;;;;9.77;8.40;;;3.30;92.70;;;;;;4769957;30;20498;-77
2021/04/03 02:56:51;;;;;;;9.35;6.35;;;3.30;92.30;;;;;;4770952;29;20055;-77
2021/04/03 02:59:27;;;;;;;8.27;7.32;;;3.30;92.50;;;;;;4770136;30;20059;-77
2021/04/03 03:01:57;;;;;;;10.77;8.95;;;3.40;92.70;;;;;;4769968;30;20048;-78
2021/04/03 03:04:28;;;;;;;;;;;3.20;92.40;;;;;;4769706;30;20052;-77
2021/04/03 03:06:58;;;;;;;8.20;6.15;;;3.20;92.60;;;;;;4771603;30;19925;-77
2021/04/03 03:09:28;;;;;;;10.20;6.78;;;3.20;93.00;;;;;;4769518;30;20398;-77
2021/04/03 03:12:00;;;;;;;19.27;9.63;;;3.10;93.10;;;;;;4770941;30;20502;-77
2021/04/03 03:14:37;;;;;;;8.50;6.57;;;3.00;93.30;;;;;;4740031;30;20414;-78
2021/04/03 03:17:06;;;;;;;10.80;7.53;;;3.00;93.50;;;;;;4769521;30;20571;-77
2021/04/03 03:19:39;;;;;;;8.43;7.03;;;3.00;93.70;;;;;;4769904;30;20084;-78
2021/04/03 03:22:10;;;;;;;11.98;6.85;;;2.90;93.40;;;;;;4768814;30;20052;-77
2021/04/03 03:24:39;;;;;;;12.02;7.72;;;3.00;93.20;;;;;;4768685;30;20514;-77
2021/04/03 03:27:09;;;;;;;9.05;6.85;;;2.90;93.40;;;;;;4770808;30;20052;-78
2021/04/03 03:29:41;;;;;;;9.32;7.88;;;2.80;93.10;;;;;;4770525;29;20059;-77
2021/04/03 03:32:09;;;;;;;8.10;6.25;;;2.80;92.80;;;;;;4768861;29;20070;-78
2021/04/03 03:34:44;;;;;;;10.35;7.80;;;2.80;92.20;;;;;;4769319;30;20063;-79
2021/04/03 03:37:13;;;;;;;15.68;7.20;;;2.80;91.90;;;;;;4770377;29;20047;-78
2021/04/03 03:39:45;;;;;;;8.60;7.50;;;2.90;92.00;;;;;;4769094;30;20148;-77
2021/04/03 03:42:17;;;;;;;8.00;6.22;;;2.80;92.20;;;;;;4769293;30;20058;-77
2021/04/03 03:44:45;;;;;;;14.18;7.75;;;2.70;92.20;;;;;;4770068;30;20047;-78
2021/04/03 03:47:15;;;;;;;10.98;8.18;;;2.80;92.20;;;;;;4769214;30;20097;-78
2021/04/03 03:49:47;;;;;;;9.20;6.38;;;2.80;92.30;;;;;;4768323;30;20048;-77
2021/04/03 03:52:15;;;;;;;13.15;10.45;;;2.70;92.20;;;;;;4769744;29;20070;-78
2021/04/03 03:54:43;;;;;;;9.32;7.13;;;2.80;91.90;;;;;;4768332;30;20070;-77
2021/04/03 03:57:12;;;;;;;12.57;8.68;;;2.80;92.40;;;;;;4765724;30;20041;-77
2021/04/03 03:59:42;;;;;;;10.67;7.13;;;2.80;92.40;;;;;;4752728;30;20055;-77
2021/04/03 04:02:11;;;;;;;7.05;6.25;;;2.70;92.30;;;;;;4736430;30;20048;-78
2021/04/03 04:04:38;;;;;;;10.43;7.47;;;2.70;92.30;;;;;;4751592;30;20044;-78
2021/04/03 04:07:08;;;;;;;11.25;7.78;;;2.70;92.10;;;;;;4751565;30;20068;-77
2021/04/03 04:09:40;;;;;;;10.02;7.05;;;2.70;92.10;;;;;;4752129;30;20798;-78
2021/04/03 04:12:09;;;;;;;9.57;7.32;;;2.70;92.40;;;;;;4752478;30;20068;-78
2021/04/03 04:14:44;;;;;;;6.57;5.57;;;2.70;92.20;;;;;;4759489;30;20142;-78
2021/04/03 04:17:14;;;;;;;12.82;8.23;;;2.70;92.20;;;;;;4767977;29;20067;-78
2021/04/03 04:19:44;;;;;;;10.40;8.60;;;2.70;92.30;;;;;;4749884;30;20809;-79
2021/04/03 04:22:12;;;;;;;9.65;6.40;;;2.70;91.60;;;;;;4767859;30;20043;-77
2021/04/03 04:24:39;;;;;;;6.82;6.00;;;2.60;92.00;;;;;;4768274;30;20046;-78
2021/04/03 04:27:15;;;;;;;15.75;5.85;;;2.70;91.80;;;;;;4770193;30;20078;-77
2021/04/03 04:29:44;;;;;;;13.35;7.30;;;2.70;91.20;;;;;;4782899;30;20051;-79
2021/04/03 04:32:12;;;;;;;15.50;7.13;;;2.70;90.70;;;;;;4768260;30;20438;-78
2021/04/03 04:34:42;;;;;;;7.93;6.07;;;2.60;90.60;;;;;;4769210;30;20056;-79
2021/04/03 04:37:10;;;;;;;7.85;5.32;;;2.70;90.50;;;;;;4768030;30;20055;-78
2021/04/03 04:39:41;;;;;;;;;;;2.60;90.40;;;;;;4769417;30;20693;-78
2021/04/03 04:42:17;;;;;;;6.38;5.43;;;2.70;90.70;;;;;;4768255;30;19932;-78
2021/04/03 04:44:52;;;;;;;12.10;6.03;;;2.60;90.70;;;;;;4768038;30;20039;-78
2021/04/03 04:47:20;;;;;;;5.82;5.32;;;2.60;90.80;;;;;;4767800;30;20072;-77
2021/04/03 04:49:52;;;;;;;7.18;4.88;;;2.60;89.80;;;;;;4768127;30;20422;-77
2021/04/03 04:52:20;;;;;;;7.30;5.78;;;2.60;90.10;;;;;;4769151;29;20055;-77
2021/04/03 04:54:49;;;;;;;10.20;5.97;;;2.60;89.20;;;;;;4769518;30;20062;-77
2021/04/03 04:57:18;;;;;;;7.05;4.97;;;2.60;89.60;;;;;;4767999;30;20047;-77
2021/04/03 04:59:57;;;;;;;9.50;5.65;;;2.50;89.80;;;;;;4768213;30;20047;-77
2021/04/03 05:02:34;;;;;;;5.85;5.32;;;2.50;90.40;;;;;;4751209;30;20411;-77
2021/04/03 05:05:01;;;;;;;7.05;5.82;;;2.50;90.50;;;;;;4768194;29;20051;-77
2021/04/03 05:07:29;;;;;;;6.22;4.93;;;2.50;90.00;;;;;;4769297;30;20075;-78
2021/04/03 05:09:56;;;;;;;8.90;4.78;;;2.60;89.70;;;;;;4767000;30;20063;-77
2021/04/03 05:12:24;;;;;;;11.40;5.72;;;2.50;89.70;;;;;;4767664;29;20044;-77
2021/04/03 05:14:51;;;;;;;7.47;5.40;;;2.60;89.50;;;;;;4768905;30;20540;-78
2021/04/03 05:17:21;;;;;;;6.43;4.68;;;2.50;88.00;;;;;;4768446;29;20062;-78
2021/04/03 05:19:49;;;;;;;8.07;5.15;;;2.50;87.80;;;;;;4769168;30;20063;-77
2021/04/03 05:22:16;;;;;;;11.60;4.53;;;2.60;88.80;;;;;;4768744;30;20048;-77
2021/04/03 05:24:44;;;;;;;4.35;3.97;;;2.50;88.80;;;;;;4766876;30;20044;-77
2021/04/03 05:27:11;;;;;;;7.55;5.38;;;2.50;87.40;;;;;;4769532;30;20395;-77
2021/04/03 05:29:39;;;;;;;8.02;4.75;;;2.50;88.30;;;;;;4768647;29;20048;-78
2021/04/03 05:32:08;;;;;;;4.65;4.20;;;2.50;87.90;;;;;;4767582;29;20410;-77
2021/04/03 05:34:35;;;;;;;8.73;5.32;;;2.50;88.40;;;;;;4769054;30;20060;-77
2021/04/03 05:37:18;;;;;;;6.47;5.40;;;2.60;87.80;;;;;;4768349;29;20048;-78
2021/04/03 05:39:46;;;;;;;6.13;5.50;;;2.60;88.30;;;;;;4768685;30;20075;-77
2021/04/03 05:42:20;;;;;;;9.77;4.50;;;2.60;88.80;;;;;;4768406;29;20419;-77
2021/04/03 05:44:49;;;;;;;8.43;5.80;;;2.50;87.20;;;;;;4770526;30;20048;-78
2021/04/03 05:47:16;;;;;;;8.15;4.78;;;2.60;87.70;;;;;;4772683;30;20071;-77
2021/04/03 05:49:49;;;;;;;7.20;5.00;;;2.70;87.10;;;;;;4772288;30;20059;-78
2021/04/03 05:52:17;;;;;;;;;;;2.60;88.20;;;;;;4772592;29;20052;-78
2021/04/03 05:54:44;;;;;;;7.15;6.03;;;2.60;87.80;;;;;;4770273;30;20277;-78
2021/04/03 05:57:12;;;;;;;5.88;4.43;;;2.60;88.40;;;;;;4762240;30;20082;-78
2021/04/03 05:59:43;;;;;;;13.05;5.32;;;2.70;87.20;;;;;;4754737;30;20411;-77
2021/04/03 06:02:11;;;;;;;7.55;4.85;;;2.70;87.80;;;;;;4754618;30;20044;-78
2021/04/03 06:04:38;;;;;;;8.60;4.65;;;2.80;87.70;;;;;;4769023;29;20521;-77
2021/04/03 06:07:06;;;;;;;15.68;6.10;;;2.90;87.10;;;;;;4771330;30;20514;-76
2021/04/03 06:09:35;;;;;;;8.93;5.43;;;2.80;87.60;;;;;;4770578;30;20048;-78
2021/04/03 06:12:03;;;;;;;6.80;4.65;;;2.80;87.40;;;;;;4770634;29;20059;-78
2021/04/03 06:14:37;;;;;;;6.30;5.47;;;2.80;88.10;;;;;;4771004;30;20050;-77
2021/04/03 06:17:05;;;;;;;6.30;4.60;;;2.90;87.50;;;;;;4771281;29;20052;-77
2021/04/03 06:19:35;;;;;;;13.00;5.10;;;3.00;86.20;;;;;;4756388;30;20056;-78
2021/04/03 06:22:04;;;;;;;7.53;5.93;;;3.00;85.00;;;;;;4759662;29;20863;-77
2021/04/03 06:24:34;;;;;;;6.90;4.90;;;3.10;84.70;;;;;;4753573;30;20051;-78
2021/04/03 06:27:08;;;;;;;6.00;5.32;;;3.10;85.60;;;;;;4753110;30;20048;-79
2021/04/03 06:29:47;;;;;;;8.50;4.03;;;3.10;84.70;;;;;;4752916;30;20495;-78
2021/04/03 06:32:27;;;;;;;9.65;5.95;;;3.20;84.70;;;;;;4754557;30;20067;-77
2021/04/03 06:34:55;;;;;;;9.38;5.68;;;3.20;85.80;;;;;;4754059;30;20834;-77
2021/04/03 06:37:30;;;;;;;5.60;5.03;;;3.20;85.90;;;;;;4753634;30;20051;-77
2021/04/03 06:40:00;;;;;;;4.00;3.30;;;3.20;84.40;;;;;;4752684;30;20052;-80
2021/04/03 06:42:37;;;;;;;7.32;5.03;;;3.10;83.20;;;;;;4770158;30;20044;-77
2021/04/03 06:45:29;;;;;;;3.80;3.50;;;3.00;83.60;;;;;;4769921;30;20816;-77
2021/04/03 06:48:02;;;;;;;8.18;5.40;;;2.90;83.00;;;;;;4770031;30;20059;-77
2021/04/03 06:50:42;;;;;;;8.63;5.18;;;3.00;84.50;;;;;;4768868;30;20511;-77
2021/04/03 06:53:12;;;;;;;12.55;6.25;;;3.20;84.00;;;;;;4753217;30;20063;-77
2021/04/03 06:55:42;;;;;;;6.23;4.20;;;4.10;80.60;;;;;;4751872;30;20064;-78
2021/04/03 06:58:11;;;;;;;6.65;4.20;;;4.70;76.00;;;;;;4752080;30;20063;-77
2021/04/03 07:00:40;;;;;;;13.88;3.75;;;5.40;74.50;;;;;;4752793;30;20052;-77
2021/04/03 07:03:15;;;;;;;3.95;3.50;;;5.50;76.40;;;;;;4753134;30;20495;-78
2021/04/03 07:05:45;;;;;;;5.50;3.38;;;5.70;72.30;;;;;;4750359;30;20060;-79
2021/04/03 07:08:13;;;;;;;6.57;4.60;;;5.60;73.50;;;;;;4753106;30;20063;-78
2021/04/03 07:10:48;;;;;;;5.65;3.72;;;5.00;75.90;;;;;;4753111;30;20081;-78
2021/04/03 07:13:16;;;;;;;3.10;2.80;;;5.20;74.20;;;;;;4752706;30;20056;-78
2021/04/03 07:15:46;;;;;;;5.70;3.72;;;5.60;70.80;;;;;;4752702;30;20377;-77
2021/04/03 07:18:16;;;;;;;3.97;3.03;;;5.60;70.30;;;;;;4752211;30;20056;-77
2021/04/03 07:20:44;;;;;;;5.93;4.00;;;6.10;71.00;;;;;;4753830;30;20044;-78
2021/04/03 07:23:14;;;;;;;9.50;4.13;;;5.60;72.60;;;;;;4769784;30;20055;-78
2021/04/03 07:25:43;;;;;;;7.68;4.10;;;4.50;75.40;;;;;;4768257;29;20047;-78
2021/04/03 07:28:11;;;;;;;3.65;3.35;;;4.50;75.90;;;;;;4770315;29;20062;-77
2021/04/03 07:30:41;;;;;;;7.30;3.50;;;5.00;78.60;;;;;;4770549;30;20067;-79
2021/04/03 07:33:12;;;;;;;5.75;2.83;;;5.20;71.80;;;;;;4770465;29;20056;-77
2021/04/03 07:35:56;;;;;;;4.20;3.47;;;5.30;70.50;;;;;;4766854;30;20051;-79
2021/04/03 07:38:34;;;;;;;4.88;4.32;;;5.70;69.90;;;;;;4762119;30;20044;-78
2021/04/03 07:41:16;;;;;;;6.15;3.53;;;7.00;67.10;;;;;;4767238;30;20052;-80
2021/04/03 07:43:46;;;;;;;13.85;3.78;;;7.10;64.80;;;;;;4753429;30;20060;-79
2021/04/03 07:46:20;;;;;;;5.43;4.13;;;5.70;68.50;;;;;;4759202;30;20044;-80
2021/04/03 07:48:57;;;;;;;8.88;4.57;;;6.10;67.60;;;;;;4767572;30;20044;-80
2021/04/03 07:51:24;;;;;;;6.32;3.92;;;5.90;68.30;;;;;;4767602;30;20063;-79
2021/04/03 07:53:54;;;;;;;4.05;3.65;;;6.60;66.10;;;;;;4766305;30;20051;-78
2021/04/03 07:56:24;;;;;;;9.10;5.80;;;7.90;61.30;;;;;;4766307;30;20056;-76
2021/04/03 07:58:56;;;;;;;3.53;3.20;;;7.30;66.00;;;;;;4750668;30;20063;-77
2021/04/03 08:01:45;;;;;;;10.25;4.00;;;7.20;61.50;;;;;;4763857;30;20558;-77
2021/04/03 08:04:12;;;;;;;7.35;4.57;;;6.20;64.80;;;;;;4768196;30;20052;-77
2021/04/03 08:06:43;;;;;;;8.00;3.35;;;5.70;68.80;;;;;;4768219;30;20060;-77
2021/04/03 08:09:14;;;;;;;5.32;4.57;;;5.50;69.30;;;;;;4768270;30;20051;-76
2021/04/03 08:11:48;;;;;;;3.70;3.33;;;4.80;70.50;;;;;;4767905;30;20612;-75
2021/04/03 08:14:16;;;;;;;4.57;3.30;;;4.40;72.70;;;;;;4767927;30;20055;-76
2021/04/03 08:16:44;;;;;;;6.93;3.50;;;4.50;72.30;;;;;;4767758;30;20055;-76
2021/04/03 08:19:12;;;;;;;4.03;3.22;;;5.30;71.70;;;;;;4758167;30;20060;-76
2021/04/03 08:21:45;;;;;;;7.20;3.47;;;5.50;69.70;;;;;;4758269;30;20060;-76
2021/04/03 08:24:14;;;;;;;3.70;3.08;;;7.60;62.70;;;;;;4767344;29;20071;-76
2021/04/03 08:26:42;;;;;;;3.90;3.55;;;9.40;55.90;;;;;;4767714;30;20060;-76
2021/04/03 08:29:24;;;;;;;5.22;2.38;;;7.70;59.20;;;;;;4757058;30;20055;-76
2021/04/03 08:31:52;;;;;;;;;;;6.20;63.60;;;;;;4758329;30;20056;-76
2021/04/03 08:34:20;;;;;;;4.65;2.53;;;5.40;69.10;;;;;;4756643;30;19926;-77
2021/04/03 08:36:50;;;;;;;7.53;3.17;;;5.50;68.40;;;;;;4758220;30;20071;-76
2021/04/03 08:39:20;;;;;;;7.90;6.63;;;5.40;66.60;;;;;;4781231;30;20422;-76
2021/04/03 08:41:51;;;;;;;3.33;2.83;;;5.40;69.60;;;;;;4760940;30;20043;-76
2021/04/03 08:44:23;;;;;;;12.80;4.60;;;5.40;66.90;;;;;;4749699;30;20064;-76
2021/04/03 08:46:59;;;;;;;4.55;3.17;;;6.20;64.50;;;;;;4750336;30;20064;-78
2021/04/03 08:49:31;;;;;;;3.55;3.25;;;7.50;58.40;;;;;;4749993;30;20052;-77
2021/04/03 08:51:58;;;;;;;6.40;3.10;;;6.40;64.00;;;;;;4761341;30;20056;-75
2021/04/03 08:54:37;;;;;;;3.65;2.88;;;6.40;66.50;;;;;;4767377;29;20074;-77
2021/04/03 08:57:29;;;;;;;4.40;3.83;;;5.60;66.00;;;;;;4769253;29;20051;-79
2021/04/03 08:59:59;;;;;;;4.38;3.60;;;5.40;67.50;;;;;;4768173;30;20068;-75
2021/04/03 09:02:28;;;;;;;;;;;5.50;66.80;;;;;;4767295;30;20052;-74
2021/04/03 09:04:56;;;;;;;5.97;4.25;;;5.20;67.20;;;;;;4767126;30;19934;-74
2021/04/03 09:07:37;;;;;;;4.00;2.90;;;5.20;64.80;;;;;;4766502;30;20360;-75
2021/04/03 09:10:18;;;;;;;5.10;4.03;;;5.50;66.20;;;;;;4766870;29;20055;-75
2021/04/03 09:12:49;;;;;;;5.72;3.00;;;5.70;68.90;;;;;;4767439;30;20399;-75
2021/04/03 09:15:30;;;;;;;3.55;2.90;;;5.50;68.20;;;;;;4767798;30;20056;-75
2021/04/03 09:17:58;;;;;;;3.88;3.10;;;5.30;66.10;;;;;;4766580;29;20483;-76
2021/04/03 09:20:28;;;;;;;12.18;4.85;;;5.50;65.50;;;;;;4764660;30;20051;-77
2021/04/03 09:23:05;;;;;;;6.93;3.92;;;6.50;70.20;;;;;;4753330;30;20089;-76
2021/04/03 09:25:33;;;;;;;5.30;4.10;;;7.00;65.90;;;;;;4751794;30;20063;-78
2021/04/03 09:28:04;;;;;;;3.53;3.22;;;7.30;58.50;;;;;;4753531;30;20434;-77
2021/04/03 09:30:37;;;;;;;5.00;4.55;;;6.30;59.80;;;;;;4752648;30;20091;-76
2021/04/03 09:33:22;;;;;;;6.38;3.05;;;6.10;63.90;;;;;;4752889;30;20063;-77
2021/04/03 09:35:51;;;;;;;11.98;4.57;;;6.00;62.70;;;;;;4752373;30;20072;-77
2021/04/03 09:38:34;;;;;;;6.03;3.70;;;6.30;62.60;;;;;;4752862;30;20132;-77
2021/04/03 09:41:02;;;;;;;9.32;3.42;;;6.70;65.40;;;;;;4757771;30;20047;-76
2021/04/03 09:43:44;;;;;;;4.32;4.00;;;6.50;62.00;;;;;;4771319;30;20418;-77
2021/04/03 09:46:12;;;;;;;11.35;5.05;;;6.00;64.60;;;;;;4769892;30;20067;-78
2021/04/03 09:48:41;;;;;;;6.22;3.83;;;5.90;61.70;;;;;;4770200;29;20055;-77
2021/04/03 09:51:09;;;;;;;7.40;4.90;;;6.00;62.90;;;;;;4770627;30;20427;-78
2021/04/03 09:53:37;;;;;;;7.03;4.35;;;5.90;62.90;;;;;;4770038;29;20048;-77
2021/04/03 09:56:06;;;;;;;8.68;7.18;;;6.10;63.00;;;;;;4768140;30;20066;-77
2021/04/03 09:58:34;;;;;;;4.60;4.15;;;5.80;61.60;;;;;;4752758;30;20067;-77
2021/04/03 10:01:04;;;;;;;5.20;4.28;;;6.00;63.20;;;;;;4752277;30;20048;-77
2021/04/03 10:03:32;;;;;;;5.70;5.10;;;5.90;62.20;;;;;;4753249;30;20059;-75
2021/04/03 10:06:01;;;;;;;14.13;6.63;;;6.00;66.60;;;;;;4752072;30;20056;-76
2021/04/03 10:08:29;;;;;;;8.88;4.97;;;5.70;64.30;;;;;;4758749;30;20055;-75
2021/04/03 10:10:57;;;;;;;6.40;5.90;;;5.50;66.00;;;;;;4770360;30;20055;-76
2021/04/03 10:13:24;;;;;;;4.38;3.88;;;5.30;66.50;;;;;;4770632;30;20055;-77
2021/04/03 10:15:54;;;;;;;5.95;4.30;;;5.20;67.60;;;;;;4770741;30;20056;-76
2021/04/03 10:18:22;;;;;;;4.72;3.95;;;5.30;69.00;;;;;;4765830;30;20045;-76
2021/04/03 10:20:51;;;;;;;4.38;3.97;;;5.30;66.70;;;;;;4754690;30;20044;-77
2021/04/03 10:23:19;;;;;;;5.30;3.65;;;5.20;66.50;;;;;;4770251;30;20047;-74
2021/04/03 10:25:47;;;;;;;3.95;3.53;;;5.20;68.10;;;;;;4769248;29;20051;-76
2021/04/03 10:28:31;;;;;;;4.32;3.92;;;5.30;67.70;;;;;;4769942;29;20044;-78
2021/04/03 10:30:59;;;;;;;5.78;3.67;;;5.30;65.90;;;;;;4770950;30;20533;-77
2021/04/03 10:33:26;;;;;;;7.97;3.70;;;5.40;64.10;;;;;;4771504;29;20048;-79
2021/04/03 10:35:53;;;;;;;3.33;2.83;;;5.40;65.10;;;;;;4771462;30;20518;-80
2021/04/03 10:38:45;;;;;;;8.20;4.43;;;5.40;66.70;;;;;;4771519;29;20063;-81
2021/04/03 10:41:13;;;;;;;7.07;3.95;;;5.40;66.30;;;;;;4771996;29;20065;-80
2021/04/03 10:43:41;;;;;;;8.90;4.70;;;5.70;67.70;;;;;;4759906;30;20060;-81
2021/04/03 10:46:08;;;;;;;6.22;5.72;;;5.80;63.10;;;;;;4754393;30;20056;-81
2021/04/03 10:48:36;;;;;;;9.77;4.18;;;5.50;65.20;;;;;;4753076;30;20047;-78
2021/04/03 10:51:05;;;;;;;5.13;4.13;;;5.70;64.60;;;;;;4760170;30;20059;-78
2021/04/03 10:53:33;;;;;;;8.38;3.72;;;6.00;65.00;;;;;;4770422;29;20433;-78
2021/04/03 10:56:01;;;;;;;9.30;3.83;;;6.30;62.40;;;;;;4769616;30;20074;-78
2021/04/03 10:58:28;;;;;;;3.55;3.25;;;6.40;64.00;;;;;;4769584;30;20067;-78
2021/04/03 11:00:57;;;;;;;5.25;3.22;;;6.50;62.00;;;;;;4769282;29;20052;-79
2021/04/03 11:03:24;;;;;;;6.32;3.47;;;6.60;61.70;;;;;;4769632;30;20075;-76
2021/04/03 11:05:51;;;;;;;3.83;3.45;;;6.70;61.30;;;;;;4767797;29;20052;-78
2021/04/03 11:08:22;;;;;;;6.35;4.28;;;6.50;63.00;;;;;;4769052;29;20055;-78
2021/04/03 11:10:50;;;;;;;11.13;3.38;;;6.20;62.20;;;;;;4762218;30;20594;-78
2021/04/03 11:13:17;;;;;;;4.07;3.55;;;6.30;65.20;;;;;;4759367;30;20050;-77
2021/04/03 11:15:46;;;;;;;4.40;3.83;;;6.50;61.40;;;;;;4760581;30;20059;-77
2021/04/03 11:18:16;;;;;;;6.15;3.42;;;6.50;65.40;;;;;;4760124;30;20055;-77
2021/04/03 11:20:44;;;;;;;3.42;2.85;;;6.70;60.80;;;;;;4760619;30;20048;-78
2021/04/03 11:23:12;;;;;;;6.43;5.25;;;6.50;65.20;;;;;;4769291;30;20067;-76
2021/04/03 11:25:40;;;;;;;8.02;4.80;;;6.20;62.70;;;;;;4768212;29;20059;-76
2021/04/03 11:28:11;;;;;;;3.70;3.05;;;5.80;61.00;;;;;;4768764;29;20063;-77
2021/04/03 11:30:38;;;;;;;4.22;3.40;;;6.10;63.20;;;;;;4769096;30;20068;-77
2021/04/03 11:33:06;;;;;;;4.78;4.07;;;6.30;62.80;;;;;;4767619;29;20052;-77
2021/04/03 11:35:35;;;;;;;6.60;4.72;;;6.40;61.60;;;;;;4768376;30;20059;-77
2021/04/03 11:38:04;;;;;;;9.23;3.58;;;6.60;62.30;;;;;;4768494;29;20050;-77
2021/04/03 11:40:32;;;;;;;3.03;2.75;;;6.70;60.30;;;;;;4767966;29;20060;-77
2021/04/03 11:42:59;;;;;;;3.38;2.92;;;6.90;60.30;;;;;;4768125;30;20387;-77
2021/04/03 11:45:30;;;;;;;3.65;3.05;;;6.90;58.40;;;;;;4768199;30;20052;-77
2021/04/03 11:47:58;;;;;;;3.78;3.10;;;6.70;60.10;;;;;;4769024;30;20075;-76
2021/04/03 11:50:26;;;;;;;6.78;3.22;;;6.70;59.70;;;;;;4768028;30;20087;-77
2021/04/03 11:52:56;;;;;;;2.53;2.33;;;6.90;62.60;;;;;;4768935;30;20043;-85
2021/04/03 11:55:23;;;;;;;4.70;2.85;;;6.90;57.40;;;;;;4770310;30;20410;-84
2021/04/03 11:57:53;;;;;;;2.50;2.30;;;6.90;55.90;;;;;;4769283;29;20412;-77
2021/04/03 12:00:21;;;;;;;4.13;3.65;;;7.20;57.70;;;;;;4768347;29;20064;-75
2021/04/03 12:02:48;;;;;;;15.93;3.60;;;7.00;59.70;;;;;;4768651;30;20060;-77
2021/04/03 12:05:17;;;;;;;6.78;2.70;;;6.90;60.40;;;;;;4767640;29;20056;-77
2021/04/03 12:07:45;;;;;;;2.55;1.85;;;6.70;59.50;;;;;;4768570;30;20068;-77
2021/04/03 12:10:16;;;;;;;4.55;2.58;;;6.50;61.00;;;;;;4767206;29;20409;-76
2021/04/03 12:12:44;;;;;;;3.17;2.30;;;6.40;59.80;;;;;;4767697;29;20044;-77
2021/04/03 12:15:13;;;;;;;1.83;1.73;;;6.20;60.40;;;;;;4767963;30;20449;-77
2021/04/03 12:17:46;;;;;;;11.55;2.30;;;6.20;62.50;;;;;;4768223;29;20055;-76
2021/04/03 12:20:17;;;;;;;6.57;3.00;;;6.30;62.10;;;;;;4749554;30;20060;-76
2021/04/03 12:22:45;;;;;;;;;;;6.40;59.90;;;;;;4768475;30;20084;-77
2021/04/03 12:25:14;;;;;;;7.53;3.85;;;6.30;60.60;;;;;;4765442;30;19954;-77
2021/04/03 12:27:41;;;;;;;3.72;2.85;;;6.30;62.90;;;;;;4766565;30;20051;-77
2021/04/03 12:30:09;;;;;;;6.38;2.50;;;6.20;62.00;;;;;;4770172;30;20065;-85
2021/04/03 12:32:37;;;;;;;7.55;2.92;;;6.20;63.80;;;;;;4771095;30;20051;-85
2021/04/03 12:35:06;;;;;;;8.10;5.45;;;6.40;65.10;;;;;;4770631;30;20062;-85
2021/04/03 12:37:35;;;;;;;6.38;3.72;;;6.50;62.90;;;;;;4770735;30;20056;-85
2021/04/03 12:40:07;;;;;;;4.18;3.10;;;6.50;61.00;;;;;;4770649;30;20126;-85
2021/04/03 12:42:36;;;;;;;4.70;2.72;;;6.60;63.20;;;;;;4771259;30;20415;-85
2021/04/03 12:45:05;;;;;;;8.05;2.90;;;6.70;62.30;;;;;;4770415;30;20056;-86
2021/04/03 12:47:32;;;;;;;8.25;3.78;;;6.70;62.30;;;;;;4770833;30;20066;-85
2021/04/03 12:49:59;;;;;;;17.35;4.93;;;6.50;59.80;;;;;;4770281;30;20051;-86
2021/04/03 12:52:28;;;;;;;2.78;2.33;;;6.50;63.70;;;;;;4770666;30;20051;-77
2021/04/03 12:54:56;;;;;;;3.38;2.53;;;6.70;61.80;;;;;;4766785;30;20070;-77
2021/04/03 12:57:25;;;;;;;3.35;2.45;;;6.70;60.20;;;;;;4766731;30;20517;-77
2021/04/03 12:59:53;;;;;;;6.95;3.80;;;6.70;59.50;;;;;;4767689;30;20051;-77
2021/04/03 13:02:20;;;;;;;3.10;2.90;;;6.80;59.70;;;;;;4767268;30;20048;-77
2021/04/03 13:04:48;;;;;;;3.33;3.13;;;6.70;58.90;;;;;;4767021;30;20051;-77
2021/04/03 13:07:18;;;;;;;3.35;3.05;;;6.70;59.60;;;;;;4767660;30;20074;-78
2021/04/03 13:09:46;;;;;;;4.43;3.35;;;6.70;59.60;;;;;;4766321;30;20066;-77
2021/04/03 13:12:14;;;;;;;9.65;3.78;;;6.70;58.90;;;;;;4767053;30;20052;-77
2021/04/03 13:14:45;;;;;;;4.30;3.17;;;6.80;61.70;;;;;;4767148;30;20156;-77
2021/04/03 13:17:12;;;;;;;4.15;3.15;;;7.10;56.80;;;;;;4768318;30;20059;-84
2021/04/03 13:19:45;;;;;;;5.65;3.25;;;7.00;57.20;;;;;;4770168;30;20748;-85